Time;durP1;ratioP1;P1;durP2;ratioP2;P2;SDS_P1;SDS_P2;PMS_P1;PMS_P2;Temp;Humidity;BMP_temperature;BMP_pressure;BME280_temperature;BME280_humidity;BME280_pressure;Samples;Min_cycle;Max_cycle;Signal;HPM_P1;HPM_P2
2021/12/13 00:01:18;;;;;;;2.55;2.15;;;9.90;99.90;;;;;;5096855;28;20036;-88
2021/12/13 00:03:51;;;;;;;1.30;1.20;;;9.80;99.90;;;;;;5113758;28;20498;-87
2021/12/13 00:06:23;;;;;;;2.40;2.20;;;9.80;99.90;;;;;;5097107;28;20035;-89
2021/12/13 00:08:52;;;;;;;3.30;1.83;;;10.00;99.90;;;;;;5113848;28;20098;-91
2021/12/13 00:11:32;;;;;;;1.17;1.08;;;9.80;99.90;;;;;;5096966;28;20044;-89
2021/12/13 00:14:10;;;;;;;2.20;1.88;;;9.80;99.90;;;;;;5096853;28;20047;-91
2021/12/13 00:16:43;;;;;;;1.98;1.33;;;10.60;99.90;;;;;;5097318;28;20035;-88
2021/12/13 00:19:16;;;;;;;7.85;2.17;;;9.80;99.90;;;;;;5096661;28;20043;-89
2021/12/13 00:21:46;;;;;;;2.45;1.55;;;9.80;99.90;;;;;;5097010;28;20238;-89
2021/12/13 00:24:23;;;;;;;2.50;2.30;;;9.80;99.90;;;;;;5096663;28;20039;-89
2021/12/13 00:26:51;;;;;;;1.75;1.52;;;9.80;99.90;;;;;;5096433;28;20092;-89
2021/12/13 00:29:21;;;;;;;4.72;2.13;;;9.80;99.90;;;;;;5096553;28;20039;-89
2021/12/13 00:32:07;;;;;;;2.13;1.92;;;9.90;99.90;;;;;;5096544;28;20028;-90
2021/12/13 00:34:41;;;;;;;4.47;2.67;;;9.90;99.90;;;;;;5096044;28;20475;-87
2021/12/13 00:37:21;;;;;;;1.33;1.05;;;9.80;99.90;;;;;;5096550;28;20089;-90
2021/12/13 00:40:04;;;;;;;3.40;2.47;;;9.90;99.90;;;;;;5096701;28;20432;-89
2021/12/13 00:42:35;;;;;;;2.05;1.65;;;9.90;99.90;;;;;;5119394;28;20032;-87
2021/12/13 00:45:07;;;;;;;0.88;0.88;;;10.10;99.90;;;;;;5121721;28;20074;-86
2021/12/13 00:47:35;;;;;;;1.55;1.45;;;9.90;99.90;;;;;;5121053;28;20054;-86
2021/12/13 00:50:27;;;;;;;1.13;1.05;;;9.90;99.90;;;;;;5121257;28;20091;-86
2021/12/13 00:52:54;;;;;;;0.70;0.70;;;9.90;99.90;;;;;;5109280;28;20052;-88
2021/12/13 00:55:25;;;;;;;2.70;1.92;;;9.90;99.90;;;;;;5097761;28;20075;-88
2021/12/13 00:58:13;;;;;;;2.28;1.88;;;9.90;99.90;;;;;;5115479;28;20440;-90
2021/12/13 01:00:58;;;;;;;1.80;1.65;;;9.90;99.90;;;;;;5114763;28;20195;-88
2021/12/13 01:03:40;;;;;;;1.15;1.05;;;9.90;99.90;;;;;;5098123;28;20039;-89
2021/12/13 01:06:19;;;;;;;3.33;1.70;;;9.90;99.90;;;;;;5096405;28;20093;-87
2021/12/13 01:08:51;;;;;;;2.72;1.70;;;9.90;99.90;;;;;;5096015;28;20130;-89
2021/12/13 01:11:48;;;;;;;1.38;1.27;;;9.90;99.90;;;;;;5096074;28;20118;-86
2021/12/13 01:14:17;;;;;;;8.10;1.63;;;9.90;99.90;;;;;;5096326;28;20036;-88
2021/12/13 01:16:59;;;;;;;1.48;1.15;;;9.90;99.90;;;;;;5113467;28;20051;-89
2021/12/13 01:19:55;;;;;;;3.17;2.03;;;9.90;99.90;;;;;;5113389;28;20039;-88
2021/12/13 01:22:50;;;;;;;1.92;1.30;;;9.90;99.90;;;;;;5113153;28;20403;-88
2021/12/13 01:26:00;;;;;;;1.30;1.13;;;9.90;99.90;;;;;;5096756;28;20031;-89
2021/12/13 01:28:28;;;;;;;1.80;0.98;;;9.90;99.90;;;;;;5096240;28;20056;-88
2021/12/13 01:31:00;;;;;;;1.75;1.65;;;9.90;99.90;;;;;;5099906;28;20047;-86
2021/12/13 01:33:29;;;;;;;2.05;1.35;;;9.90;99.90;;;;;;5099541;28;20032;-87
2021/12/13 01:35:58;;;;;;;1.85;1.38;;;9.90;99.90;;;;;;5116333;28;20074;-87
2021/12/13 01:38:35;;;;;;;1.08;0.98;;;9.90;99.90;;;;;;5098975;28;20031;-87
2021/12/13 01:41:25;;;;;;;2.15;0.93;;;9.90;99.90;;;;;;5113340;28;20509;-90
2021/12/13 01:43:56;;;;;;;6.05;1.27;;;9.90;99.90;;;;;;5112929;28;20386;-88
2021/12/13 01:46:24;;;;;;;0.65;0.65;;;9.90;99.90;;;;;;5113792;28;20063;-89
2021/12/13 01:48:52;;;;;;;3.08;1.10;;;9.90;99.90;;;;;;5116726;28;20390;-87
2021/12/13 01:51:22;;;;;;;0.75;0.75;;;11.80;99.90;;;;;;5099316;28;20036;-87
2021/12/13 01:53:57;;;;;;;4.47;1.58;;;9.90;99.90;;;;;;5099204;28;20043;-87
2021/12/13 01:56:57;;;;;;;1.27;1.15;;;9.90;99.90;;;;;;5099310;28;20035;-86
2021/12/13 01:59:50;;;;;;;0.80;0.80;;;9.90;99.90;;;;;;5099521;28;20079;-87
2021/12/13 02:02:31;;;;;;;1.23;1.10;;;9.90;99.90;;;;;;5102992;28;20063;-86
2021/12/13 02:05:08;;;;;;;4.25;1.38;;;9.90;99.90;;;;;;5126886;28;20031;-86
2021/12/13 02:07:45;;;;;;;1.57;0.60;;;9.90;99.90;;;;;;5106286;28;20039;-87
2021/12/13 02:10:20;;;;;;;6.82;2.05;;;9.90;99.90;;;;;;5115914;28;20046;-86
2021/12/13 02:12:54;;;;;;;1.73;1.63;;;10.50;99.90;;;;;;5098943;28;20039;-87
2021/12/13 02:18:10;;;;;;;2.92;2.03;;;10.00;99.90;;;;;;5115979;28;20100;-87
2021/12/13 02:20:40;;;;;;;1.55;1.42;;;9.90;99.90;;;;;;5115712;28;20032;-88
2021/12/13 02:23:06;;;;;;;2.08;1.15;;;10.00;99.90;;;;;;5098771;28;20091;-87
2021/12/13 02:25:45;;;;;;;1.23;1.13;;;10.00;99.90;;;;;;5115751;28;20043;-87
2021/12/13 02:28:17;;;;;;;1.00;0.88;;;10.00;99.90;;;;;;5098511;28;20043;-89
2021/12/13 02:31:00;;;;;;;1.30;1.20;;;9.90;99.90;;;;;;5115701;28;20043;-87
2021/12/13 02:33:41;;;;;;;2.03;1.80;;;10.00;99.90;;;;;;5098613;28;20039;-87
2021/12/13 02:36:09;;;;;;;2.30;1.15;;;10.50;99.90;;;;;;5098762;28;20043;-88
2021/12/13 02:38:36;;;;;;;0.93;0.85;;;10.20;99.90;;;;;;5098408;28;20044;-88
2021/12/13 02:41:04;;;;;;;0.85;0.85;;;9.90;99.90;;;;;;5098742;28;20047;-88
2021/12/13 02:43:36;;;;;;;1.40;0.68;;;10.00;99.90;;;;;;5115252;28;20046;-88
2021/12/13 02:46:02;;;;;;;3.60;2.28;;;10.00;99.90;;;;;;5115231;28;20039;-89
2021/12/13 02:48:30;;;;;;;0.97;0.93;;;10.00;99.90;;;;;;5098445;28;20044;-87
2021/12/13 02:51:14;;;;;;;2.55;1.30;;;9.90;99.90;;;;;;5115680;28;20387;-88
2021/12/13 02:53:57;;;;;;;2.47;1.48;;;10.30;99.90;;;;;;5098868;28;20612;-83
2021/12/13 02:56:29;;;;;;;1.08;0.93;;;9.50;99.90;;;;;;5115774;28;20487;-88
2021/12/13 02:58:57;;;;;;;1.20;1.10;;;10.70;99.90;;;;;;5098382;28;20483;-90
2021/12/13 03:01:34;;;;;;;0.95;0.90;;;9.90;99.90;;;;;;5098567;28;20130;-88
2021/12/13 03:04:04;;;;;;;2.20;1.52;;;9.90;99.90;;;;;;5115545;28;20357;-88
2021/12/13 03:06:37;;;;;;;1.75;0.93;;;9.90;99.90;;;;;;5098322;28;20459;-91
2021/12/13 03:09:12;;;;;;;0.82;0.77;;;9.90;99.90;;;;;;5097835;28;20048;-88
2021/12/13 03:11:38;;;;;;;1.80;1.70;;;9.90;99.90;;;;;;5098127;28;20040;-89
2021/12/13 03:14:09;;;;;;;0.73;0.67;;;10.60;99.90;;;;;;5097925;28;20092;-89
2021/12/13 03:16:45;;;;;;;1.38;1.27;;;9.90;99.90;;;;;;5097899;28;20085;-88
2021/12/13 03:19:37;;;;;;;1.23;1.00;;;11.50;99.90;;;;;;5097740;28;20039;-90
2021/12/13 03:22:30;;;;;;;1.23;0.82;;;11.60;99.90;;;;;;5083848;28;20514;-87
2021/12/13 03:25:13;;;;;;;1.67;1.58;;;9.90;99.90;;;;;;5097582;28;20122;-88
2021/12/13 03:28:08;;;;;;;4.57;1.30;;;9.90;99.90;;;;;;5097573;28;20124;-88
2021/12/13 03:30:56;;;;;;;1.30;1.20;;;9.90;99.90;;;;;;5098063;28;20039;-89
2021/12/13 03:33:40;;;;;;;1.25;1.15;;;10.10;99.90;;;;;;5098227;28;20036;-91
2021/12/13 03:36:10;;;;;;;0.85;0.70;;;9.90;99.90;;;;;;5097654;28;20120;-90
2021/12/13 03:38:41;;;;;;;1.17;1.10;;;9.90;99.90;;;;;;5097712;28;20040;-89
2021/12/13 03:41:11;;;;;;;0.88;0.75;;;9.90;99.90;;;;;;5098370;28;20047;-89
2021/12/13 03:43:42;;;;;;;1.25;1.15;;;9.80;99.90;;;;;;5098338;28;20130;-88
2021/12/13 03:46:11;;;;;;;0.60;0.60;;;9.80;99.90;;;;;;5098273;28;20051;-91
2021/12/13 03:48:39;;;;;;;0.63;0.63;;;13.20;99.90;;;;;;5099176;28;20073;-88
2021/12/13 03:51:09;;;;;;;0.65;0.65;;;9.80;99.90;;;;;;5099677;28;20383;-89
2021/12/13 03:53:37;;;;;;;1.05;0.90;;;9.80;99.90;;;;;;5098332;28;20554;-89
2021/12/13 03:56:10;;;;;;;1.60;1.50;;;9.70;99.90;;;;;;5097855;28;20382;-89
2021/12/13 03:58:39;;;;;;;0.65;0.50;;;9.70;99.90;;;;;;5098541;28;20043;-89
2021/12/13 04:01:15;;;;;;;1.80;1.30;;;9.70;99.90;;;;;;5115202;28;20039;-89
2021/12/13 04:03:43;;;;;;;1.08;1.02;;;9.70;99.90;;;;;;5115018;28;20046;-87
2021/12/13 04:06:09;;;;;;;0.40;0.40;;;9.70;99.90;;;;;;5098008;28;20456;-89
2021/12/13 04:08:35;;;;;;;0.70;0.70;;;9.60;99.90;;;;;;5096554;28;20075;-90
2021/12/13 04:11:06;;;;;;;0.50;0.50;;;11.30;99.90;;;;;;5097252;28;20039;-88
2021/12/13 04:13:39;;;;;;;2.40;1.02;;;9.50;99.90;;;;;;5097480;28;20050;-90
2021/12/13 04:16:18;;;;;;;0.65;0.65;;;9.50;99.90;;;;;;5097307;28;20440;-89
2021/12/13 04:19:08;;;;;;;0.95;0.70;;;9.50;99.90;;;;;;5097034;28;20364;-89
2021/12/13 04:21:46;;;;;;;2.95;0.80;;;9.40;99.90;;;;;;5114480;28;20503;-90
2021/12/13 04:24:21;;;;;;;;;;;9.40;99.90;;;;;;5097466;28;20046;-89
2021/12/13 04:26:52;;;;;;;0.77;0.77;;;9.40;99.90;;;;;;5096780;28;19916;-89
2021/12/13 04:29:31;;;;;;;0.40;0.40;;;9.40;99.90;;;;;;5096537;28;20077;-89
2021/12/13 04:31:58;;;;;;;0.95;0.88;;;9.30;99.90;;;;;;5113456;28;20093;-88
2021/12/13 04:34:28;;;;;;;1.23;0.60;;;9.30;99.90;;;;;;5096532;28;20036;-89
2021/12/13 04:36:56;;;;;;;0.80;0.80;;;9.30;99.90;;;;;;5096348;28;20080;-89
2021/12/13 04:39:33;;;;;;;0.93;0.93;;;9.20;99.90;;;;;;5096493;28;20055;-89
2021/12/13 04:42:04;;;;;;;1.08;1.02;;;9.20;99.90;;;;;;5096249;28;20044;-88
2021/12/13 04:44:34;;;;;;;0.77;0.77;;;9.20;99.90;;;;;;5096148;28;20077;-90
2021/12/13 04:47:16;;;;;;;0.75;0.75;;;9.10;99.90;;;;;;5096169;28;20062;-88
2021/12/13 04:50:10;;;;;;;0.50;0.50;;;9.90;99.90;;;;;;5113144;28;20495;-89
2021/12/13 04:52:37;;;;;;;0.50;0.50;;;9.00;99.90;;;;;;5096460;28;20035;-88
2021/12/13 04:55:11;;;;;;;1.08;0.90;;;9.00;99.90;;;;;;5096237;28;20376;-87
2021/12/13 04:57:38;;;;;;;0.80;0.80;;;9.00;99.90;;;;;;5096636;28;20040;-90
2021/12/13 05:00:12;;;;;;;1.38;1.27;;;8.90;99.90;;;;;;5113354;28;20122;-88
2021/12/13 05:02:43;;;;;;;0.73;0.73;;;8.90;99.90;;;;;;5113301;28;20043;-89
2021/12/13 05:05:10;;;;;;;1.13;0.70;;;8.70;99.90;;;;;;5112948;28;20050;-88
2021/12/13 05:07:37;;;;;;;0.80;0.50;;;8.90;99.90;;;;;;5096229;28;20040;-88
2021/12/13 05:10:04;;;;;;;0.50;0.50;;;8.90;99.90;;;;;;5095960;28;20437;-88
2021/12/13 05:12:29;;;;;;;0.82;0.82;;;8.90;99.90;;;;;;5095852;28;20038;-89
2021/12/13 05:15:04;;;;;;;0.73;0.73;;;8.80;99.90;;;;;;5095830;28;20031;-88
2021/12/13 05:17:39;;;;;;;0.63;0.63;;;8.80;99.90;;;;;;5095902;28;20036;-88
2021/12/13 05:20:20;;;;;;;0.55;0.55;;;8.80;99.90;;;;;;5113642;28;20028;-89
2021/12/13 05:23:07;;;;;;;1.83;1.67;;;9.60;99.90;;;;;;5117059;28;20036;-87
2021/12/13 05:25:42;;;;;;;0.57;0.57;;;8.80;99.90;;;;;;5100320;28;20039;-89
2021/12/13 05:28:17;;;;;;;1.55;1.30;;;8.80;99.90;;;;;;5100129;28;20035;-89
2021/12/13 05:30:56;;;;;;;0.70;0.70;;;8.90;99.90;;;;;;5105722;28;20086;-86
2021/12/13 05:33:24;;;;;;;0.40;0.40;;;8.90;99.90;;;;;;5109925;28;20050;-86
2021/12/13 05:35:52;;;;;;;1.02;0.93;;;8.90;99.90;;;;;;5104412;28;20040;-87
2021/12/13 05:38:30;;;;;;;1.35;1.25;;;10.50;99.90;;;;;;5100006;28;20104;-89
2021/12/13 05:40:58;;;;;;;0.52;0.52;;;8.80;99.90;;;;;;5116888;28;20036;-87
2021/12/13 05:43:39;;;;;;;0.70;0.70;;;8.90;99.90;;;;;;5099558;28;20092;-88
2021/12/13 05:46:08;;;;;;;0.98;0.88;;;8.90;99.90;;;;;;5099353;28;20078;-88
2021/12/13 05:48:34;;;;;;;0.75;0.75;;;8.80;99.90;;;;;;5099402;28;20502;-87
2021/12/13 05:51:21;;;;;;;0.60;0.60;;;8.90;99.90;;;;;;5100155;28;20047;-89
2021/12/13 05:54:00;;;;;;;1.70;0.80;;;8.90;99.90;;;;;;5100165;28;20042;-87
2021/12/13 05:56:35;;;;;;;0.50;0.50;;;8.90;99.90;;;;;;5100222;28;20274;-89
2021/12/13 05:59:19;;;;;;;0.63;0.60;;;8.90;99.90;;;;;;5100169;28;20092;-88
2021/12/13 06:01:54;;;;;;;0.88;0.68;;;8.90;99.90;;;;;;5099886;28;20043;-87
2021/12/13 06:04:31;;;;;;;1.42;1.27;;;9.50;99.90;;;;;;5099285;28;20093;-88
2021/12/13 06:06:57;;;;;;;1.13;0.83;;;8.90;99.90;;;;;;5099437;28;20047;-88
2021/12/13 06:09:42;;;;;;;0.90;0.82;;;8.90;99.90;;;;;;5099022;28;20040;-82
2021/12/13 06:12:13;;;;;;;1.42;1.33;;;8.90;99.90;;;;;;5115933;28;20040;-86
2021/12/13 06:14:39;;;;;;;1.08;1.05;;;8.90;99.90;;;;;;5099361;28;20105;-89
2021/12/13 06:17:16;;;;;;;1.75;1.30;;;8.90;99.90;;;;;;5115911;28;20043;-88
2021/12/13 06:20:07;;;;;;;2.72;1.27;;;8.90;99.90;;;;;;5115968;28;20088;-84
2021/12/13 06:22:34;;;;;;;0.85;0.73;;;8.90;99.90;;;;;;5115887;28;20038;-88
2021/12/13 06:25:17;;;;;;;0.60;0.60;;;8.90;99.90;;;;;;5115660;28;20082;-89
2021/12/13 06:27:49;;;;;;;0.65;0.65;;;8.90;99.90;;;;;;5098607;28;20085;-88
2021/12/13 06:30:25;;;;;;;0.93;0.93;;;8.90;99.90;;;;;;5099292;28;20028;-89
2021/12/13 06:32:58;;;;;;;1.08;1.05;;;8.90;99.90;;;;;;5098047;28;20483;-88
2021/12/13 06:35:38;;;;;;;1.85;1.75;;;8.90;99.90;;;;;;5116000;28;20036;-89
2021/12/13 06:38:19;;;;;;;0.60;0.60;;;8.90;99.90;;;;;;5098919;28;20040;-88
2021/12/13 06:41:06;;;;;;;0.95;0.88;;;8.90;99.90;;;;;;5116030;28;20039;-87
2021/12/13 06:43:51;;;;;;;2.00;1.42;;;8.90;99.90;;;;;;5099124;28;20063;-86
2021/12/13 06:46:22;;;;;;;1.50;1.35;;;8.90;99.90;;;;;;5098711;28;20055;-86
2021/12/13 06:48:58;;;;;;;1.25;1.15;;;8.90;99.90;;;;;;5098733;28;20494;-86
2021/12/13 06:51:40;;;;;;;1.75;1.02;;;8.90;99.90;;;;;;5097889;28;20035;-87
2021/12/13 06:54:10;;;;;;;10.10;1.48;;;8.90;99.90;;;;;;5116040;28;20453;-88
2021/12/13 06:56:39;;;;;;;1.48;1.38;;;8.90;99.90;;;;;;5098597;28;20089;-87
2021/12/13 06:59:08;;;;;;;1.25;1.15;;;8.90;99.90;;;;;;5115439;28;20092;-88
2021/12/13 07:01:37;;;;;;;1.13;1.02;;;8.80;99.90;;;;;;5098454;28;20080;-89
2021/12/13 07:04:10;;;;;;;2.65;1.70;;;8.90;99.90;;;;;;5097851;28;20032;-84
2021/12/13 07:06:37;;;;;;;1.85;1.73;;;8.90;99.90;;;;;;5114759;28;20100;-87
2021/12/13 07:09:11;;;;;;;0.95;0.82;;;8.90;99.90;;;;;;5097792;28;20036;-89
2021/12/13 07:11:45;;;;;;;1.15;1.08;;;8.90;99.90;;;;;;5114818;28;20035;-88
2021/12/13 07:14:14;;;;;;;0.80;0.77;;;8.90;99.90;;;;;;5114727;28;20085;-87
2021/12/13 07:16:42;;;;;;;2.38;1.95;;;8.90;99.90;;;;;;5097503;28;20399;-88
2021/12/13 07:19:20;;;;;;;1.55;1.45;;;8.90;99.90;;;;;;5097841;28;20035;-89
2021/12/13 07:22:03;;;;;;;1.40;1.27;;;8.90;99.90;;;;;;5097722;28;20040;-89
2021/12/13 07:24:42;;;;;;;0.95;0.95;;;8.90;99.90;;;;;;5114616;28;20131;-78
2021/12/13 07:27:19;;;;;;;4.35;1.85;;;8.90;99.90;;;;;;5113651;28;20078;-82
2021/12/13 07:29:48;;;;;;;1.83;1.73;;;8.90;99.90;;;;;;5097829;28;20437;-81
2021/12/13 07:32:19;;;;;;;1.83;1.25;;;8.90;99.90;;;;;;5115450;28;20503;-86
2021/12/13 07:35:14;;;;;;;1.13;1.02;;;8.90;99.90;;;;;;5115360;28;20497;-85
2021/12/13 07:37:45;;;;;;;1.50;1.40;;;8.90;99.90;;;;;;5098668;28;20364;-84
2021/12/13 07:40:29;;;;;;;1.95;0.95;;;8.90;99.90;;;;;;5113976;28;20051;-85
2021/12/13 07:43:10;;;;;;;1.17;1.08;;;8.90;99.90;;;;;;5148795;27;20506;-87
2021/12/13 07:46:09;;;;;;;1.20;1.10;;;8.90;99.90;;;;;;5115499;28;20046;-85
2021/12/13 07:48:39;;;;;;;2.15;1.95;;;8.90;99.90;;;;;;5107349;28;20076;-85
2021/12/13 07:51:25;;;;;;;0.60;0.60;;;8.90;99.90;;;;;;5115487;27;20042;-88
2021/12/13 07:53:57;;;;;;;1.80;1.00;;;8.90;99.90;;;;;;5096926;28;20031;-87
2021/12/13 07:56:29;;;;;;;1.75;1.52;;;8.90;99.90;;;;;;5111662;28;20031;-85
2021/12/13 07:59:02;;;;;;;1.05;0.95;;;8.90;99.90;;;;;;5095988;28;20522;-87
2021/12/13 08:01:31;;;;;;;2.30;1.50;;;8.90;99.90;;;;;;5113795;28;20392;-86
2021/12/13 08:04:00;;;;;;;2.83;2.60;;;8.90;99.90;;;;;;5113954;28;20060;-87
2021/12/13 08:06:32;;;;;;;3.15;1.35;;;9.00;99.90;;;;;;5115373;28;20046;-86
2021/12/13 08:09:03;;;;;;;1.65;1.48;;;8.90;99.90;;;;;;5096122;28;20048;-86
2021/12/13 08:11:53;;;;;;;1.58;0.95;;;8.90;99.90;;;;;;5098078;28;20043;-86
2021/12/13 08:14:28;;;;;;;0.70;0.70;;;8.90;99.90;;;;;;5097005;28;20046;-85
2021/12/13 08:16:54;;;;;;;1.60;1.50;;;8.90;99.90;;;;;;5095586;28;20039;-84
2021/12/13 08:19:31;;;;;;;2.17;1.55;;;8.90;99.90;;;;;;5096278;28;20387;-83
2021/12/13 08:22:02;;;;;;;1.27;1.20;;;8.90;99.90;;;;;;5109948;28;20044;-83
2021/12/13 08:24:41;;;;;;;2.42;1.40;;;8.90;99.90;;;;;;5093199;28;20127;-89
2021/12/13 08:27:12;;;;;;;1.33;1.15;;;8.90;99.90;;;;;;5076031;28;20177;-88
2021/12/13 08:29:40;;;;;;;0.90;0.90;;;8.90;99.90;;;;;;5100766;28;20043;-88
2021/12/13 08:32:27;;;;;;;1.25;1.13;;;8.90;99.90;;;;;;5097839;28;20042;-89
2021/12/13 08:34:59;;;;;;;0.60;0.60;;;8.90;99.90;;;;;;5146978;27;20052;-89
2021/12/13 08:37:32;;;;;;;5.45;2.25;;;8.90;99.90;;;;;;5096216;28;20043;-86
2021/12/13 08:40:02;;;;;;;3.08;1.90;;;8.90;99.90;;;;;;5097027;28;20042;-89
2021/12/13 08:42:35;;;;;;;1.70;1.60;;;9.00;99.90;;;;;;5147673;27;20042;-85
2021/12/13 08:45:17;;;;;;;5.53;2.45;;;9.20;99.90;;;;;;5096391;28;20085;-83
2021/12/13 08:47:49;;;;;;;1.35;1.25;;;9.00;99.90;;;;;;5114246;28;20047;-86
2021/12/13 08:50:23;;;;;;;0.65;0.63;;;9.00;99.90;;;;;;5097025;28;20089;-88
2021/12/13 08:52:55;;;;;;;1.38;1.27;;;9.00;99.90;;;;;;5113415;28;20061;-88
2021/12/13 08:55:28;;;;;;;1.20;0.75;;;9.00;99.90;;;;;;5096026;28;20070;-87
2021/12/13 08:58:14;;;;;;;0.73;0.73;;;8.90;99.90;;;;;;5102741;28;20031;-86
2021/12/13 09:00:59;;;;;;;0.98;0.95;;;9.00;99.90;;;;;;5118162;28;20085;-86
2021/12/13 09:03:33;;;;;;;2.75;0.80;;;9.00;99.90;;;;;;5117375;28;20035;-89
2021/12/13 09:06:25;;;;;;;1.65;1.02;;;9.00;99.90;;;;;;5098519;28;20413;-90
2021/12/13 09:09:17;;;;;;;1.15;0.90;;;10.00;99.90;;;;;;5132236;28;20039;-87
2021/12/13 09:11:59;;;;;;;2.25;2.05;;;9.00;99.90;;;;;;5135488;28;20042;-92
2021/12/13 09:14:36;;;;;;;1.08;0.95;;;9.00;99.90;;;;;;5119805;28;20044;-89
2021/12/13 09:17:21;;;;;;;1.75;1.50;;;9.00;99.90;;;;;;5118979;28;20388;-86
2021/12/13 09:20:14;;;;;;;1.17;1.08;;;9.00;99.90;;;;;;5115350;28;20065;-89
2021/12/13 09:22:56;;;;;;;1.25;1.15;;;9.00;99.90;;;;;;5097126;28;20044;-84
2021/12/13 09:25:34;;;;;;;1.08;0.98;;;9.00;99.90;;;;;;5114953;28;20059;-86
2021/12/13 09:28:09;;;;;;;1.77;1.67;;;9.10;99.90;;;;;;5097199;28;20119;-88
2021/12/13 09:30:43;;;;;;;2.72;2.47;;;9.10;99.90;;;;;;5097218;28;20036;-89
2021/12/13 09:33:22;;;;;;;1.48;1.40;;;9.10;99.90;;;;;;5095625;28;20120;-86
2021/12/13 09:35:54;;;;;;;1.88;1.70;;;9.00;99.90;;;;;;5113804;28;20031;-85
2021/12/13 09:38:52;;;;;;;1.98;1.85;;;9.10;99.90;;;;;;5103477;28;20055;-78
2021/12/13 09:41:41;;;;;;;1.02;1.02;;;9.10;99.90;;;;;;5079400;28;20514;-85
2021/12/13 09:44:10;;;;;;;2.17;1.55;;;9.10;99.90;;;;;;5114203;28;20040;-88
2021/12/13 09:46:56;;;;;;;3.08;1.75;;;9.10;99.90;;;;;;5112071;28;20055;-86
2021/12/13 09:49:31;;;;;;;1.65;1.15;;;9.10;99.90;;;;;;5111682;28;20043;-86
2021/12/13 09:52:03;;;;;;;0.73;0.73;;;9.10;99.90;;;;;;5113660;28;20039;-86
2021/12/13 09:54:40;;;;;;;1.25;1.15;;;9.10;99.90;;;;;;5114497;28;20035;-86
2021/12/13 09:57:19;;;;;;;1.67;1.57;;;9.10;99.90;;;;;;5112414;28;20387;-85
2021/12/13 09:59:49;;;;;;;1.30;1.05;;;9.20;99.90;;;;;;5095397;28;20051;-85
2021/12/13 10:02:33;;;;;;;5.63;1.95;;;9.20;99.90;;;;;;5129640;28;20039;-89
2021/12/13 10:05:05;;;;;;;10.43;1.85;;;9.20;99.90;;;;;;5110555;28;20067;-88
2021/12/13 10:07:35;;;;;;;2.38;1.25;;;9.20;99.90;;;;;;5096761;28;20054;-86
2021/12/13 10:10:13;;;;;;;0.90;0.90;;;9.20;99.90;;;;;;5099253;28;20040;-85
2021/12/13 10:12:46;;;;;;;1.13;1.08;;;9.20;99.90;;;;;;5116034;28;20066;-76
2021/12/13 10:15:19;;;;;;;0.80;0.80;;;9.20;99.90;;;;;;5116144;28;20399;-87
2021/12/13 10:17:49;;;;;;;1.80;1.20;;;9.30;99.90;;;;;;5116141;28;20063;-88
2021/12/13 10:20:23;;;;;;;0.70;0.70;;;9.30;99.90;;;;;;5098236;28;20047;-88
2021/12/13 10:22:49;;;;;;;1.40;1.30;;;9.20;99.90;;;;;;5099231;28;20469;-87
2021/12/13 10:25:20;;;;;;;1.30;1.20;;;9.20;99.90;;;;;;5098694;28;20046;-86
2021/12/13 10:27:47;;;;;;;1.10;1.05;;;9.20;99.90;;;;;;5115743;28;20042;-87
2021/12/13 10:30:19;;;;;;;1.80;1.65;;;9.20;99.90;;;;;;5115851;28;20508;-88
2021/12/13 10:32:45;;;;;;;1.02;1.00;;;9.20;99.90;;;;;;5099223;28;20040;-87
2021/12/13 10:35:19;;;;;;;1.92;1.30;;;9.20;99.90;;;;;;5098812;28;20028;-86
2021/12/13 10:37:52;;;;;;;1.45;1.35;;;9.20;99.90;;;;;;5115539;28;20047;-87
2021/12/13 10:40:31;;;;;;;1.08;0.95;;;9.30;99.90;;;;;;5115864;28;20448;-87
2021/12/13 10:43:06;;;;;;;1.58;1.30;;;9.20;99.90;;;;;;5115226;28;20047;-87
2021/12/13 10:45:39;;;;;;;1.75;1.38;;;9.30;99.90;;;;;;5115728;28;20122;-86
2021/12/13 10:48:07;;;;;;;2.47;1.63;;;9.30;99.90;;;;;;5115211;28;20051;-86
2021/12/13 10:50:42;;;;;;;1.38;1.20;;;9.40;99.90;;;;;;5098090;28;20071;-87
2021/12/13 10:53:10;;;;;;;0.50;0.50;;;9.40;99.90;;;;;;5150078;27;20371;-87
2021/12/13 10:55:44;;;;;;;1.38;1.27;;;9.40;99.90;;;;;;5115377;28;20034;-88
2021/12/13 10:58:10;;;;;;;1.52;1.42;;;9.40;99.90;;;;;;5115195;28;20043;-87
2021/12/13 11:00:40;;;;;;;1.10;1.10;;;9.40;99.90;;;;;;5115220;28;20039;-88
2021/12/13 11:03:10;;;;;;;1.98;1.83;;;9.40;99.90;;;;;;5114715;28;20491;-87
2021/12/13 11:05:36;;;;;;;0.93;0.93;;;9.40;99.90;;;;;;5097987;28;20079;-87
2021/12/13 11:08:04;;;;;;;1.98;1.75;;;9.40;99.90;;;;;;5114805;28;20063;-87
2021/12/13 11:10:35;;;;;;;1.75;0.93;;;9.40;99.90;;;;;;5115022;28;20122;-87
2021/12/13 11:13:02;;;;;;;1.38;0.95;;;9.40;99.90;;;;;;5114978;28;20043;-87
2021/12/13 11:15:33;;;;;;;1.00;1.00;;;9.40;99.90;;;;;;5097797;28;20035;-88
2021/12/13 11:18:01;;;;;;;1.25;0.98;;;9.40;99.90;;;;;;5114678;28;20040;-87
2021/12/13 11:20:32;;;;;;;5.18;1.25;;;9.40;99.90;;;;;;5114699;28;20058;-88
2021/12/13 11:22:59;;;;;;;2.00;1.48;;;9.40;99.90;;;;;;5114733;28;20042;-88
2021/12/13 11:25:29;;;;;;;2.05;1.65;;;9.40;99.90;;;;;;5115807;28;20107;-84
2021/12/13 11:27:55;;;;;;;0.70;0.70;;;9.40;99.90;;;;;;5115821;28;20099;-85
2021/12/13 11:30:26;;;;;;;1.02;0.95;;;9.30;99.90;;;;;;5115849;28;20027;-82
2021/12/13 11:32:58;;;;;;;1.05;0.95;;;9.40;99.90;;;;;;5114389;28;20432;-88
2021/12/13 11:36:01;;;;;;;1.55;0.85;;;9.40;99.90;;;;;;5116886;28;20074;-81
2021/12/13 11:38:29;;;;;;;1.05;0.95;;;9.40;99.90;;;;;;5115680;28;20050;-86
2021/12/13 11:41:34;;;;;;;3.80;1.15;;;9.40;99.90;;;;;;5148544;27;20097;-84
2021/12/13 11:44:22;;;;;;;1.02;0.98;;;9.30;99.90;;;;;;5115535;28;20066;-86
2021/12/13 11:47:23;;;;;;;0.80;0.80;;;9.30;99.90;;;;;;5115115;28;20056;-85
2021/12/13 11:50:21;;;;;;;1.10;1.00;;;9.30;99.90;;;;;;5096791;28;20495;-82
2021/12/13 11:52:59;;;;;;;0.75;0.75;;;9.40;99.90;;;;;;5115443;28;20383;-82
2021/12/13 11:55:28;;;;;;;;;;;9.40;99.90;;;;;;5115724;28;20043;-86
2021/12/13 11:58:17;;;;;;;2.22;0.80;;;9.40;99.90;;;;;;5129142;27;19915;-84
2021/12/13 12:01:21;;;;;;;0.88;0.85;;;9.40;99.90;;;;;;5113651;28;20429;-82
2021/12/13 12:04:07;;;;;;;3.50;1.45;;;9.50;99.90;;;;;;5114530;28;20812;-81
2021/12/13 12:07:08;;;;;;;1.60;1.13;;;9.40;99.90;;;;;;5113911;28;20548;-84
2021/12/13 12:10:05;;;;;;;1.15;1.02;;;9.40;99.90;;;;;;5095855;28;20105;-87
2021/12/13 12:13:01;;;;;;;1.33;1.23;;;9.50;99.90;;;;;;5096149;28;20050;-86
2021/12/13 12:15:28;;;;;;;0.80;0.80;;;9.50;99.90;;;;;;5114439;28;20042;-83
2021/12/13 12:18:01;;;;;;;1.13;1.08;;;9.50;99.90;;;;;;5114680;28;20425;-86
2021/12/13 12:20:32;;;;;;;0.70;0.70;;;9.50;99.90;;;;;;5114526;28;20042;-85
2021/12/13 12:23:23;;;;;;;1.58;1.48;;;9.40;99.90;;;;;;5116000;28;20047;-86
2021/12/13 12:25:49;;;;;;;0.93;0.77;;;9.40;99.90;;;;;;5118281;28;20040;-87
2021/12/13 12:28:17;;;;;;;1.67;1.58;;;9.50;99.90;;;;;;5097667;28;20508;-85
2021/12/13 12:30:47;;;;;;;0.77;0.77;;;9.40;99.90;;;;;;5113693;28;20043;-83
2021/12/13 12:33:40;;;;;;;1.15;0.80;;;9.50;99.90;;;;;;5113676;28;20102;-84
2021/12/13 12:36:16;;;;;;;1.50;1.38;;;9.50;99.90;;;;;;5110763;28;20044;-83
2021/12/13 12:39:00;;;;;;;1.25;1.15;;;9.40;99.90;;;;;;5114322;28;20043;-84
2021/12/13 12:41:58;;;;;;;1.95;1.25;;;9.50;99.90;;;;;;5114144;28;20050;-85
2021/12/13 12:44:32;;;;;;;0.70;0.70;;;9.50;99.90;;;;;;5112696;28;20563;-86
2021/12/13 12:46:58;;;;;;;0.63;0.63;;;9.40;99.90;;;;;;5095602;28;20126;-85
2021/12/13 12:49:26;;;;;;;0.95;0.90;;;9.50;99.90;;;;;;5112902;28;20047;-83
2021/12/13 12:52:00;;;;;;;1.58;1.48;;;9.50;99.90;;;;;;5114183;28;20398;-84
2021/12/13 12:54:27;;;;;;;0.60;0.60;;;9.50;99.90;;;;;;5112886;28;20050;-86
2021/12/13 12:56:58;;;;;;;2.80;1.35;;;9.50;99.90;;;;;;5113931;28;20118;-84
2021/12/13 12:59:29;;;;;;;2.13;1.95;;;9.50;99.90;;;;;;5114217;28;20043;-85
2021/12/13 13:02:00;;;;;;;1.83;1.40;;;9.50;99.90;;;;;;5113705;28;20069;-85
2021/12/13 13:04:53;;;;;;;2.05;1.48;;;9.50;99.90;;;;;;5113941;28;20085;-85
2021/12/13 13:07:32;;;;;;;1.13;0.93;;;9.50;99.90;;;;;;5105477;28;20050;-82
2021/12/13 13:10:04;;;;;;;0.90;0.85;;;9.50;99.90;;;;;;5114090;28;20421;-79
2021/12/13 13:12:30;;;;;;;0.50;0.50;;;9.50;99.90;;;;;;5113652;28;20082;-83
2021/12/13 13:15:07;;;;;;;2.57;1.67;;;9.50;99.90;;;;;;5113823;28;20035;-84
2021/12/13 13:17:38;;;;;;;0.80;0.80;;;9.60;99.90;;;;;;5113898;28;20072;-79
2021/12/13 13:20:38;;;;;;;1.00;0.93;;;9.50;99.90;;;;;;5113594;28;20510;-81
2021/12/13 13:23:05;;;;;;;0.82;0.82;;;9.50;99.90;;;;;;5106990;28;20126;-81
2021/12/13 13:25:47;;;;;;;0.68;0.68;;;9.50;99.90;;;;;;5113884;28;20040;-82
2021/12/13 13:28:18;;;;;;;0.75;0.75;;;9.50;99.90;;;;;;5112416;28;20035;-83
2021/12/13 13:31:00;;;;;;;1.55;0.93;;;9.50;99.90;;;;;;5113243;28;20483;-84
2021/12/13 13:33:38;;;;;;;1.08;1.02;;;9.50;99.90;;;;;;5097198;28;20388;-84
2021/12/13 13:36:05;;;;;;;1.98;0.95;;;9.50;99.90;;;;;;5112807;28;20035;-83
2021/12/13 13:38:31;;;;;;;2.97;1.95;;;9.50;99.90;;;;;;5112221;28;20055;-83
2021/12/13 13:40:57;;;;;;;1.57;1.47;;;9.50;99.90;;;;;;5114177;28;20079;-83
2021/12/13 13:43:23;;;;;;;0.63;0.63;;;9.60;99.90;;;;;;5117206;28;20040;-82
2021/12/13 13:45:54;;;;;;;0.82;0.82;;;9.60;99.90;;;;;;5117242;28;20331;-83